sensor_id;sensor_type;location;lat;lon;timestamp;P1;durP1;ratioP1;P2;durP2;ratioP2
67869;SDS011;54673;52.262;6.830;2022-09-03T00:01:41;1.70;;;1.60;;
67869;SDS011;54673;52.262;6.830;2022-09-03T00:04:27;2.87;;;1.67;;
67869;SDS011;54673;52.262;6.830;2022-09-03T00:07:11;3.30;;;1.58;;
67869;SDS011;54673;52.262;6.830;2022-09-03T00:09:46;4.30;;;1.63;;
67869;SDS011;54673;52.262;6.830;2022-09-03T00:12:24;2.60;;;1.60;;
67869;SDS011;54673;52.262;6.830;2022-09-03T00:17:44;2.40;;;1.67;;
67869;SDS011;54673;52.262;6.830;2022-09-03T00:20:17;3.05;;;1.50;;
67869;SDS011;54673;52.262;6.830;2022-09-03T00:22:49;2.13;;;1.93;;
67869;SDS011;54673;52.262;6.830;2022-09-03T00:25:19;1.53;;;1.37;;
67869;SDS011;54673;52.262;6.830;2022-09-03T00:27:51;4.38;;;1.65;;
67869;SDS011;54673;52.262;6.830;2022-09-03T00:30:19;1.80;;;1.60;;
67869;SDS011;54673;52.262;6.830;2022-09-03T00:32:50;1.83;;;1.47;;
67869;SDS011;54673;52.262;6.830;2022-09-03T00:35:31;2.15;;;1.83;;
67869;SDS011;54673;52.262;6.830;2022-09-03T00:38:09;3.20;;;1.40;;
67869;SDS011;54673;52.262;6.830;2022-09-03T00:40:41;2.08;;;1.42;;
67869;SDS011;54673;52.262;6.830;2022-09-03T00:47:01;1.63;;;1.40;;
67869;SDS011;54673;52.262;6.830;2022-09-03T00:54:54;1.90;;;1.70;;
67869;SDS011;54673;52.262;6.830;2022-09-03T01:00:15;1.73;;;1.63;;
67869;SDS011;54673;52.262;6.830;2022-09-03T01:05:48;3.13;;;1.67;;
67869;SDS011;54673;52.262;6.830;2022-09-03T01:11:27;2.67;;;1.50;;
67869;SDS011;54673;52.262;6.830;2022-09-03T01:30:37;2.07;;;1.40;;
67869;SDS011;54673;52.262;6.830;2022-09-03T01:46:56;3.10;;;1.10;;
67869;SDS011;54673;52.262;6.830;2022-09-03T01:52:06;1.30;;;1.20;;
67869;SDS011;54673;52.262;6.830;2022-09-03T01:54:42;1.57;;;1.13;;
67869;SDS011;54673;52.262;6.830;2022-09-03T02:00:09;1.30;;;1.10;;
67869;SDS011;54673;52.262;6.830;2022-09-03T02:02:40;3.63;;;1.40;;
67869;SDS011;54673;52.262;6.830;2022-09-03T02:05:12;1.60;;;1.40;;
67869;SDS011;54673;52.262;6.830;2022-09-03T02:07:48;1.63;;;1.30;;
67869;SDS011;54673;52.262;6.830;2022-09-03T02:10:27;3.30;;;1.30;;
67869;SDS011;54673;52.262;6.830;2022-09-03T02:13:06;3.27;;;1.50;;
67869;SDS011;54673;52.262;6.830;2022-09-03T02:15:47;1.55;;;1.13;;
67869;SDS011;54673;52.262;6.830;2022-09-03T02:18:15;1.80;;;1.30;;
67869;SDS011;54673;52.262;6.830;2022-09-03T02:20:43;1.50;;;1.00;;
67869;SDS011;54673;52.262;6.830;2022-09-03T02:23:11;1.85;;;1.10;;
67869;SDS011;54673;52.262;6.830;2022-09-03T02:25:39;1.10;;;1.00;;
67869;SDS011;54673;52.262;6.830;2022-09-03T02:28:08;1.20;;;1.10;;
67869;SDS011;54673;52.262;6.830;2022-09-03T02:30:34;1.05;;;0.95;;
67869;SDS011;54673;52.262;6.830;2022-09-03T02:33:00;3.20;;;1.10;;
67869;SDS011;54673;52.262;6.830;2022-09-03T02:35:26;5.35;;;1.30;;
67869;SDS011;54673;52.262;6.830;2022-09-03T02:37:52;1.23;;;1.13;;
67869;SDS011;54673;52.262;6.830;2022-09-03T02:40:17;1.50;;;1.20;;
67869;SDS011;54673;52.262;6.830;2022-09-03T02:42:43;1.40;;;1.30;;
67869;SDS011;54673;52.262;6.830;2022-09-03T02:45:23;1.52;;;1.40;;
67869;SDS011;54673;52.262;6.830;2022-09-03T02:47:57;1.40;;;1.20;;
67869;SDS011;54673;52.262;6.830;2022-09-03T02:50:24;1.77;;;1.20;;
67869;SDS011;54673;52.262;6.830;2022-09-03T02:52:51;1.42;;;1.33;;
67869;SDS011;54673;52.262;6.830;2022-09-03T02:55:17;1.30;;;1.20;;
67869;SDS011;54673;52.262;6.830;2022-09-03T02:57:44;2.20;;;1.00;;
67869;SDS011;54673;52.262;6.830;2022-09-03T03:00:10;1.35;;;1.23;;
67869;SDS011;54673;52.262;6.830;2022-09-03T03:02:36;1.73;;;1.30;;
67869;SDS011;54673;52.262;6.830;2022-09-03T03:05:02;1.67;;;1.10;;
67869;SDS011;54673;52.262;6.830;2022-09-03T03:07:29;2.13;;;1.07;;
67869;SDS011;54673;52.262;6.830;2022-09-03T03:09:58;1.30;;;1.10;;
67869;SDS011;54673;52.262;6.830;2022-09-03T03:12:23;1.10;;;0.90;;
67869;SDS011;54673;52.262;6.830;2022-09-03T03:14:49;1.27;;;1.17;;
67869;SDS011;54673;52.262;6.830;2022-09-03T03:17:15;1.57;;;1.17;;
67869;SDS011;54673;52.262;6.830;2022-09-03T03:19:40;1.92;;;1.20;;
67869;SDS011;54673;52.262;6.830;2022-09-03T03:22:06;1.13;;;1.00;;
67869;SDS011;54673;52.262;6.830;2022-09-03T03:24:31;1.00;;;0.90;;
67869;SDS011;54673;52.262;6.830;2022-09-03T03:26:57;2.95;;;1.05;;
67869;SDS011;54673;52.262;6.830;2022-09-03T03:29:23;1.43;;;1.00;;
67869;SDS011;54673;52.262;6.830;2022-09-03T03:31:49;1.20;;;1.00;;
67869;SDS011;54673;52.262;6.830;2022-09-03T03:34:15;1.30;;;1.20;;
67869;SDS011;54673;52.262;6.830;2022-09-03T03:36:41;1.40;;;1.13;;
67869;SDS011;54673;52.262;6.830;2022-09-03T03:39:07;1.85;;;1.30;;
67869;SDS011;54673;52.262;6.830;2022-09-03T03:41:33;2.60;;;1.00;;
67869;SDS011;54673;52.262;6.830;2022-09-03T03:44:01;1.35;;;1.10;;
67869;SDS011;54673;52.262;6.830;2022-09-03T03:46:30;1.70;;;1.20;;
67869;SDS011;54673;52.262;6.830;2022-09-03T03:48:57;2.75;;;1.30;;
67869;SDS011;54673;52.262;6.830;2022-09-03T03:51:23;2.97;;;1.10;;
67869;SDS011;54673;52.262;6.830;2022-09-03T03:53:52;3.67;;;1.23;;
67869;SDS011;54673;52.262;6.830;2022-09-03T03:56:19;3.45;;;1.08;;
67869;SDS011;54673;52.262;6.830;2022-09-03T03:58:45;1.43;;;1.10;;
67869;SDS011;54673;52.262;6.830;2022-09-03T04:01:13;1.75;;;1.30;;
67869;SDS011;54673;52.262;6.830;2022-09-03T04:03:40;1.20;;;1.10;;
67869;SDS011;54673;52.262;6.830;2022-09-03T04:06:07;2.05;;;1.33;;
67869;SDS011;54673;52.262;6.830;2022-09-03T04:08:35;1.20;;;1.00;;
67869;SDS011;54673;52.262;6.830;2022-09-03T04:11:03;2.80;;;1.20;;
67869;SDS011;54673;52.262;6.830;2022-09-03T04:13:31;2.25;;;1.08;;
67869;SDS011;54673;52.262;6.830;2022-09-03T04:16:01;1.98;;;1.38;;
67869;SDS011;54673;52.262;6.830;2022-09-03T04:18:29;1.93;;;1.00;;
67869;SDS011;54673;52.262;6.830;2022-09-03T04:20:59;4.90;;;1.15;;
67869;SDS011;54673;52.262;6.830;2022-09-03T04:23:28;2.10;;;1.10;;
67869;SDS011;54673;52.262;6.830;2022-09-03T04:25:57;3.05;;;1.15;;
67869;SDS011;54673;52.262;6.830;2022-09-03T04:28:23;2.03;;;1.10;;
67869;SDS011;54673;52.262;6.830;2022-09-03T04:30:49;1.70;;;1.20;;
67869;SDS011;54673;52.262;6.830;2022-09-03T04:33:14;2.67;;;1.30;;
67869;SDS011;54673;52.262;6.830;2022-09-03T04:35:40;1.10;;;1.00;;
67869;SDS011;54673;52.262;6.830;2022-09-03T04:38:06;1.57;;;1.23;;
67869;SDS011;54673;52.262;6.830;2022-09-03T04:40:31;2.33;;;1.15;;
67869;SDS011;54673;52.262;6.830;2022-09-03T04:42:57;2.85;;;1.10;;
67869;SDS011;54673;52.262;6.830;2022-09-03T04:45:23;2.73;;;0.90;;
67869;SDS011;54673;52.262;6.830;2022-09-03T04:47:58;1.77;;;1.10;;
67869;SDS011;54673;52.262;6.830;2022-09-03T04:50:25;1.43;;;1.30;;
67869;SDS011;54673;52.262;6.830;2022-09-03T04:52:52;1.30;;;1.10;;
67869;SDS011;54673;52.262;6.830;2022-09-03T04:55:20;3.38;;;1.50;;
67869;SDS011;54673;52.262;6.830;2022-09-03T04:57:46;1.60;;;1.13;;
67869;SDS011;54673;52.262;6.830;2022-09-03T05:00:12;2.30;;;1.20;;
67869;SDS011;54673;52.262;6.830;2022-09-03T05:02:38;1.60;;;1.20;;
67869;SDS011;54673;52.262;6.830;2022-09-03T05:05:03;3.53;;;1.00;;
67869;SDS011;54673;52.262;6.830;2022-09-03T05:07:30;1.30;;;1.10;;
67869;SDS011;54673;52.262;6.830;2022-09-03T05:10:04;1.20;;;1.10;;
67869;SDS011;54673;52.262;6.830;2022-09-03T05:12:34;1.55;;;1.27;;
67869;SDS011;54673;52.262;6.830;2022-09-03T05:15:00;1.07;;;0.97;;
67869;SDS011;54673;52.262;6.830;2022-09-03T05:17:26;1.25;;;1.13;;
67869;SDS011;54673;52.262;6.830;2022-09-03T05:19:52;2.03;;;1.10;;
67869;SDS011;54673;52.262;6.830;2022-09-03T05:22:17;1.63;;;1.00;;
67869;SDS011;54673;52.262;6.830;2022-09-03T05:24:45;1.70;;;1.20;;
67869;SDS011;54673;52.262;6.830;2022-09-03T05:27:12;1.20;;;1.00;;
67869;SDS011;54673;52.262;6.830;2022-09-03T05:29:40;3.72;;;1.20;;
67869;SDS011;54673;52.262;6.830;2022-09-03T05:32:06;2.67;;;1.10;;
67869;SDS011;54673;52.262;6.830;2022-09-03T05:34:32;2.15;;;1.35;;
67869;SDS011;54673;52.262;6.830;2022-09-03T05:36:57;2.10;;;1.20;;
67869;SDS011;54673;52.262;6.830;2022-09-03T05:39:23;1.10;;;1.00;;
67869;SDS011;54673;52.262;6.830;2022-09-03T05:41:48;2.27;;;1.20;;
67869;SDS011;54673;52.262;6.830;2022-09-03T05:44:15;1.53;;;1.00;;
67869;SDS011;54673;52.262;6.830;2022-09-03T05:46:41;0.93;;;0.80;;
67869;SDS011;54673;52.262;6.830;2022-09-03T05:49:07;1.47;;;1.00;;
67869;SDS011;54673;52.262;6.830;2022-09-03T05:51:33;1.58;;;1.00;;
67869;SDS011;54673;52.262;6.830;2022-09-03T05:54:00;1.30;;;1.00;;
67869;SDS011;54673;52.262;6.830;2022-09-03T05:56:28;1.65;;;1.20;;
67869;SDS011;54673;52.262;6.830;2022-09-03T05:58:58;1.67;;;1.03;;
67869;SDS011;54673;52.262;6.830;2022-09-03T06:01:29;1.52;;;1.00;;
67869;SDS011;54673;52.262;6.830;2022-09-03T06:03:57;1.30;;;1.08;;
67869;SDS011;54673;52.262;6.830;2022-09-03T06:06:24;3.17;;;1.00;;
67869;SDS011;54673;52.262;6.830;2022-09-03T06:08:52;2.45;;;1.10;;
67869;SDS011;54673;52.262;6.830;2022-09-03T06:11:19;1.58;;;0.90;;
67869;SDS011;54673;52.262;6.830;2022-09-03T06:13:45;1.77;;;0.93;;
67869;SDS011;54673;52.262;6.830;2022-09-03T06:16:11;1.67;;;0.95;;
67869;SDS011;54673;52.262;6.830;2022-09-03T06:18:37;1.30;;;1.00;;
67869;SDS011;54673;52.262;6.830;2022-09-03T06:21:05;1.38;;;1.20;;
67869;SDS011;54673;52.262;6.830;2022-09-03T06:23:31;1.87;;;0.90;;
67869;SDS011;54673;52.262;6.830;2022-09-03T06:26:02;1.80;;;0.90;;
67869;SDS011;54673;52.262;6.830;2022-09-03T06:28:29;1.13;;;0.90;;
67869;SDS011;54673;52.262;6.830;2022-09-03T06:30:59;1.87;;;1.10;;
67869;SDS011;54673;52.262;6.830;2022-09-03T06:33:26;1.95;;;0.98;;
67869;SDS011;54673;52.262;6.830;2022-09-03T06:35:54;2.10;;;1.10;;
67869;SDS011;54673;52.262;6.830;2022-09-03T06:38:24;1.55;;;0.95;;
67869;SDS011;54673;52.262;6.830;2022-09-03T06:40:52;1.42;;;1.10;;
67869;SDS011;54673;52.262;6.830;2022-09-03T06:43:21;1.63;;;1.00;;
67869;SDS011;54673;52.262;6.830;2022-09-03T06:46:22;1.60;;;1.15;;
67869;SDS011;54673;52.262;6.830;2022-09-03T06:48:40;3.47;;;1.00;;
67869;SDS011;54673;52.262;6.830;2022-09-03T06:51:07;3.70;;;1.17;;
67869;SDS011;54673;52.262;6.830;2022-09-03T06:53:39;2.53;;;1.30;;
67869;SDS011;54673;52.262;6.830;2022-09-03T06:56:10;1.60;;;1.13;;
67869;SDS011;54673;52.262;6.830;2022-09-03T06:58:38;4.25;;;1.00;;
67869;SDS011;54673;52.262;6.830;2022-09-03T07:03:45;2.23;;;1.07;;
67869;SDS011;54673;52.262;6.830;2022-09-03T07:06:16;1.77;;;1.10;;
67869;SDS011;54673;52.262;6.830;2022-09-03T07:08:43;5.73;;;0.90;;
67869;SDS011;54673;52.262;6.830;2022-09-03T07:11:11;3.10;;;1.20;;
67869;SDS011;54673;52.262;6.830;2022-09-03T07:13:40;4.05;;;1.25;;
67869;SDS011;54673;52.262;6.830;2022-09-03T07:16:11;1.67;;;0.93;;
67869;SDS011;54673;52.262;6.830;2022-09-03T07:18:39;2.42;;;1.10;;
67869;SDS011;54673;52.262;6.830;2022-09-03T07:21:05;4.57;;;1.30;;
67869;SDS011;54673;52.262;6.830;2022-09-03T07:23:33;3.45;;;1.00;;
67869;SDS011;54673;52.262;6.830;2022-09-03T07:26:01;4.85;;;1.00;;
67869;SDS011;54673;52.262;6.830;2022-09-03T07:28:33;2.93;;;1.00;;
67869;SDS011;54673;52.262;6.830;2022-09-03T07:31:04;3.60;;;1.20;;
67869;SDS011;54673;52.262;6.830;2022-09-03T07:33:31;2.03;;;1.17;;
67869;SDS011;54673;52.262;6.830;2022-09-03T07:36:01;2.00;;;1.40;;
67869;SDS011;54673;52.262;6.830;2022-09-03T07:38:38;3.88;;;1.38;;
67869;SDS011;54673;52.262;6.830;2022-09-03T07:41:05;5.83;;;1.23;;
67869;SDS011;54673;52.262;6.830;2022-09-03T07:43:35;3.85;;;1.05;;
67869;SDS011;54673;52.262;6.830;2022-09-03T07:46:04;3.05;;;1.00;;
67869;SDS011;54673;52.262;6.830;2022-09-03T07:48:42;2.33;;;1.00;;
67869;SDS011;54673;52.262;6.830;2022-09-03T07:51:08;2.22;;;1.20;;
67869;SDS011;54673;52.262;6.830;2022-09-03T07:53:35;2.07;;;1.43;;
67869;SDS011;54673;52.262;6.830;2022-09-03T07:56:04;3.20;;;1.00;;
67869;SDS011;54673;52.262;6.830;2022-09-03T07:58:32;1.30;;;1.10;;
67869;SDS011;54673;52.262;6.830;2022-09-03T08:01:02;1.73;;;1.27;;
67869;SDS011;54673;52.262;6.830;2022-09-03T08:03:30;1.63;;;1.20;;
67869;SDS011;54673;52.262;6.830;2022-09-03T08:05:59;1.43;;;1.17;;
67869;SDS011;54673;52.262;6.830;2022-09-03T08:08:26;1.40;;;1.00;;
67869;SDS011;54673;52.262;6.830;2022-09-03T08:10:52;2.00;;;1.30;;
67869;SDS011;54673;52.262;6.830;2022-09-03T08:13:17;1.40;;;1.10;;
67869;SDS011;54673;52.262;6.830;2022-09-03T08:15:43;1.37;;;0.80;;
67869;SDS011;54673;52.262;6.830;2022-09-03T08:18:17;2.63;;;1.35;;
67869;SDS011;54673;52.262;6.830;2022-09-03T08:20:43;7.53;;;1.47;;
67869;SDS011;54673;52.262;6.830;2022-09-03T08:23:09;5.10;;;1.60;;
67869;SDS011;54673;52.262;6.830;2022-09-03T08:25:34;3.37;;;1.30;;
67869;SDS011;54673;52.262;6.830;2022-09-03T08:28:00;2.80;;;1.57;;
67869;SDS011;54673;52.262;6.830;2022-09-03T08:30:27;7.25;;;1.48;;
67869;SDS011;54673;52.262;6.830;2022-09-03T08:32:53;2.80;;;1.33;;
67869;SDS011;54673;52.262;6.830;2022-09-03T08:35:19;5.30;;;1.30;;
67869;SDS011;54673;52.262;6.830;2022-09-03T08:37:46;3.20;;;1.20;;
67869;SDS011;54673;52.262;6.830;2022-09-03T08:40:15;2.70;;;1.10;;
67869;SDS011;54673;52.262;6.830;2022-09-03T08:45:14;3.00;;;1.27;;
67869;SDS011;54673;52.262;6.830;2022-09-03T08:50:47;2.67;;;1.52;;
67869;SDS011;54673;52.262;6.830;2022-09-03T08:53:25;4.53;;;1.30;;
67869;SDS011;54673;52.262;6.830;2022-09-03T08:56:02;4.18;;;1.33;;
67869;SDS011;54673;52.262;6.830;2022-09-03T08:58:32;4.00;;;1.10;;
67869;SDS011;54673;52.262;6.830;2022-09-03T09:06:45;3.97;;;1.37;;
67869;SDS011;54673;52.262;6.830;2022-09-03T09:09:34;2.05;;;1.20;;
67869;SDS011;54673;52.262;6.830;2022-09-03T09:22:28;2.05;;;1.23;;
67869;SDS011;54673;52.262;6.830;2022-09-03T09:25:00;1.90;;;1.50;;
67869;SDS011;54673;52.262;6.830;2022-09-03T09:27:31;3.53;;;1.27;;
67869;SDS011;54673;52.262;6.830;2022-09-03T09:29:57;2.05;;;1.10;;
67869;SDS011;54673;52.262;6.830;2022-09-03T09:32:25;3.00;;;1.33;;
67869;SDS011;54673;52.262;6.830;2022-09-03T09:34:51;2.33;;;1.10;;
67869;SDS011;54673;52.262;6.830;2022-09-03T09:37:18;2.30;;;1.30;;
67869;SDS011;54673;52.262;6.830;2022-09-03T09:39:54;1.70;;;1.10;;
67869;SDS011;54673;52.262;6.830;2022-09-03T09:42:24;4.32;;;1.70;;
67869;SDS011;54673;52.262;6.830;2022-09-03T09:44:51;2.97;;;1.30;;
67869;SDS011;54673;52.262;6.830;2022-09-03T09:47:21;7.60;;;1.15;;
67869;SDS011;54673;52.262;6.830;2022-09-03T09:49:56;2.25;;;1.10;;
67869;SDS011;54673;52.262;6.830;2022-09-03T09:52:24;2.07;;;1.27;;
67869;SDS011;54673;52.262;6.830;2022-09-03T09:54:53;2.05;;;1.35;;
67869;SDS011;54673;52.262;6.830;2022-09-03T09:57:34;1.97;;;1.27;;
67869;SDS011;54673;52.262;6.830;2022-09-03T10:00:22;3.38;;;1.50;;
67869;SDS011;54673;52.262;6.830;2022-09-03T10:02:53;5.45;;;1.17;;
67869;SDS011;54673;52.262;6.830;2022-09-03T10:07:55;8.40;;;1.58;;
67869;SDS011;54673;52.262;6.830;2022-09-03T10:10:23;6.73;;;1.30;;
67869;SDS011;54673;52.262;6.830;2022-09-03T10:12:52;4.43;;;1.30;;
67869;SDS011;54673;52.262;6.830;2022-09-03T10:20:38;4.75;;;1.40;;
67869;SDS011;54673;52.262;6.830;2022-09-03T10:23:10;5.23;;;1.30;;
67869;SDS011;54673;52.262;6.830;2022-09-03T10:28:24;1.95;;;1.10;;
67869;SDS011;54673;52.262;6.830;2022-09-03T10:30:58;1.53;;;1.30;;
67869;SDS011;54673;52.262;6.830;2022-09-03T10:34:00;1.20;;;1.10;;
67869;SDS011;54673;52.262;6.830;2022-09-03T10:36:30;1.25;;;1.00;;
67869;SDS011;54673;52.262;6.830;2022-09-03T10:39:22;2.27;;;1.10;;
67869;SDS011;54673;52.262;6.830;2022-09-03T10:44:38;2.40;;;1.20;;
67869;SDS011;54673;52.262;6.830;2022-09-03T10:47:31;1.73;;;1.20;;
67869;SDS011;54673;52.262;6.830;2022-09-03T10:50:12;2.17;;;1.30;;
67869;SDS011;54673;52.262;6.830;2022-09-03T10:53:02;1.63;;;1.00;;
67869;SDS011;54673;52.262;6.830;2022-09-03T10:56:05;1.30;;;1.10;;
67869;SDS011;54673;52.262;6.830;2022-09-03T11:06:42;1.85;;;1.10;;
67869;SDS011;54673;52.262;6.830;2022-09-03T11:09:40;1.67;;;1.20;;
67869;SDS011;54673;52.262;6.830;2022-09-03T11:12:16;2.28;;;1.10;;
67869;SDS011;54673;52.262;6.830;2022-09-03T11:14:59;2.22;;;1.10;;
67869;SDS011;54673;52.262;6.830;2022-09-03T11:17:39;1.50;;;1.20;;
67869;SDS011;54673;52.262;6.830;2022-09-03T11:22:38;1.80;;;1.13;;
67869;SDS011;54673;52.262;6.830;2022-09-03T11:25:06;4.47;;;1.27;;
67869;SDS011;54673;52.262;6.830;2022-09-03T11:30:12;2.23;;;1.53;;
67869;SDS011;54673;52.262;6.830;2022-09-03T11:32:48;2.80;;;1.33;;
67869;SDS011;54673;52.262;6.830;2022-09-03T11:38:03;2.42;;;1.25;;
67869;SDS011;54673;52.262;6.830;2022-09-03T11:40:36;1.97;;;1.20;;
67869;SDS011;54673;52.262;6.830;2022-09-03T11:48:46;3.03;;;1.20;;
67869;SDS011;54673;52.262;6.830;2022-09-03T11:51:54;3.92;;;1.30;;
67869;SDS011;54673;52.262;6.830;2022-09-03T11:56:36;2.63;;;1.10;;
67869;SDS011;54673;52.262;6.830;2022-09-03T12:02:03;1.38;;;1.27;;
67869;SDS011;54673;52.262;6.830;2022-09-03T12:10:19;6.68;;;1.42;;
67869;SDS011;54673;52.262;6.830;2022-09-03T12:18:28;3.80;;;1.50;;
67869;SDS011;54673;52.262;6.830;2022-09-03T12:26:11;6.35;;;1.50;;
67869;SDS011;54673;52.262;6.830;2022-09-03T12:28:39;1.50;;;1.40;;
67869;SDS011;54673;52.262;6.830;2022-09-03T12:31:49;2.27;;;1.23;;
67869;SDS011;54673;52.262;6.830;2022-09-03T12:33:59;3.33;;;1.40;;
67869;SDS011;54673;52.262;6.830;2022-09-03T12:36:37;1.90;;;1.30;;
67869;SDS011;54673;52.262;6.830;2022-09-03T12:39:17;2.38;;;1.40;;
67869;SDS011;54673;52.262;6.830;2022-09-03T12:44:23;4.10;;;1.30;;
67869;SDS011;54673;52.262;6.830;2022-09-03T12:46:59;4.00;;;1.45;;
67869;SDS011;54673;52.262;6.830;2022-09-03T12:49:41;2.97;;;1.53;;
67869;SDS011;54673;52.262;6.830;2022-09-03T12:54:56;3.88;;;1.20;;
67869;SDS011;54673;52.262;6.830;2022-09-03T12:57:35;2.90;;;1.27;;
67869;SDS011;54673;52.262;6.830;2022-09-03T13:00:09;5.28;;;1.38;;
67869;SDS011;54673;52.262;6.830;2022-09-03T13:02:46;3.05;;;1.52;;
67869;SDS011;54673;52.262;6.830;2022-09-03T13:05:30;6.30;;;1.37;;
67869;SDS011;54673;52.262;6.830;2022-09-03T13:08:01;2.85;;;1.40;;
67869;SDS011;54673;52.262;6.830;2022-09-03T13:10:35;2.53;;;1.50;;
67869;SDS011;54673;52.262;6.830;2022-09-03T13:13:28;4.13;;;1.60;;
67869;SDS011;54673;52.262;6.830;2022-09-03T13:15:59;2.10;;;1.33;;
67869;SDS011;54673;52.262;6.830;2022-09-03T13:18:45;2.27;;;1.40;;
67869;SDS011;54673;52.262;6.830;2022-09-03T13:27:14;2.20;;;1.40;;
67869;SDS011;54673;52.262;6.830;2022-09-03T13:32:30;1.63;;;1.20;;
67869;SDS011;54673;52.262;6.830;2022-09-03T13:43:26;3.30;;;1.40;;
67869;SDS011;54673;52.262;6.830;2022-09-03T13:46:08;4.40;;;1.52;;
67869;SDS011;54673;52.262;6.830;2022-09-03T13:48:41;3.20;;;1.37;;
67869;SDS011;54673;52.262;6.830;2022-09-03T13:51:28;3.75;;;1.25;;
67869;SDS011;54673;52.262;6.830;2022-09-03T13:56:56;2.67;;;1.30;;
67869;SDS011;54673;52.262;6.830;2022-09-03T13:59:34;2.42;;;1.38;;
67869;SDS011;54673;52.262;6.830;2022-09-03T14:05:05;1.80;;;1.30;;
67869;SDS011;54673;52.262;6.830;2022-09-03T14:07:50;1.40;;;1.20;;
67869;SDS011;54673;52.262;6.830;2022-09-03T14:10:43;1.77;;;1.40;;
67869;SDS011;54673;52.262;6.830;2022-09-03T14:13:27;2.27;;;1.40;;
67869;SDS011;54673;52.262;6.830;2022-09-03T14:16:42;2.00;;;1.50;;
67869;SDS011;54673;52.262;6.830;2022-09-03T14:19:04;8.23;;;1.40;;
67869;SDS011;54673;52.262;6.830;2022-09-03T14:21:41;4.13;;;1.53;;
67869;SDS011;54673;52.262;6.830;2022-09-03T14:24:11;9.48;;;1.60;;
67869;SDS011;54673;52.262;6.830;2022-09-03T14:26:56;3.95;;;1.40;;
67869;SDS011;54673;52.262;6.830;2022-09-03T14:29:27;4.60;;;1.50;;
67869;SDS011;54673;52.262;6.830;2022-09-03T14:31:58;4.60;;;1.63;;
67869;SDS011;54673;52.262;6.830;2022-09-03T14:37:46;3.57;;;1.73;;
67869;SDS011;54673;52.262;6.830;2022-09-03T14:42:53;3.13;;;1.70;;
67869;SDS011;54673;52.262;6.830;2022-09-03T14:56:35;3.95;;;1.80;;
67869;SDS011;54673;52.262;6.830;2022-09-03T15:12:47;3.28;;;1.75;;
67869;SDS011;54673;52.262;6.830;2022-09-03T15:20:53;5.97;;;2.10;;
67869;SDS011;54673;52.262;6.830;2022-09-03T15:23:50;2.63;;;1.70;;
67869;SDS011;54673;52.262;6.830;2022-09-03T15:26:33;2.63;;;2.10;;
67869;SDS011;54673;52.262;6.830;2022-09-03T15:31:51;3.93;;;1.90;;
67869;SDS011;54673;52.262;6.830;2022-09-03T15:37:19;3.90;;;1.70;;
67869;SDS011;54673;52.262;6.830;2022-09-03T15:39:56;3.23;;;1.50;;
67869;SDS011;54673;52.262;6.830;2022-09-03T15:42:30;3.55;;;2.00;;
67869;SDS011;54673;52.262;6.830;2022-09-03T15:45:02;2.83;;;1.77;;
67869;SDS011;54673;52.262;6.830;2022-09-03T15:47:52;2.00;;;1.63;;
67869;SDS011;54673;52.262;6.830;2022-09-03T15:56:09;2.58;;;2.15;;
67869;SDS011;54673;52.262;6.830;2022-09-03T15:58:50;7.30;;;2.08;;
67869;SDS011;54673;52.262;6.830;2022-09-03T16:01:27;3.17;;;2.00;;
67869;SDS011;54673;52.262;6.830;2022-09-03T16:04:01;5.60;;;2.05;;
67869;SDS011;54673;52.262;6.830;2022-09-03T16:06:46;9.50;;;2.90;;
67869;SDS011;54673;52.262;6.830;2022-09-03T16:13:00;5.28;;;2.50;;
67869;SDS011;54673;52.262;6.830;2022-09-03T16:15:44;10.67;;;3.17;;
67869;SDS011;54673;52.262;6.830;2022-09-03T16:20:53;2.55;;;2.00;;
67869;SDS011;54673;52.262;6.830;2022-09-03T16:23:40;5.00;;;1.80;;
67869;SDS011;54673;52.262;6.830;2022-09-03T16:26:13;4.00;;;1.90;;
67869;SDS011;54673;52.262;6.830;2022-09-03T16:28:54;3.17;;;2.13;;
67869;SDS011;54673;52.262;6.830;2022-09-03T16:36:57;3.17;;;1.60;;
67869;SDS011;54673;52.262;6.830;2022-09-03T16:39:37;3.95;;;1.80;;
67869;SDS011;54673;52.262;6.830;2022-09-03T16:42:26;3.88;;;1.60;;
67869;SDS011;54673;52.262;6.830;2022-09-03T16:44:58;2.30;;;1.70;;
67869;SDS011;54673;52.262;6.830;2022-09-03T16:48:13;2.40;;;1.75;;
67869;SDS011;54673;52.262;6.830;2022-09-03T16:51:05;7.13;;;1.90;;
67869;SDS011;54673;52.262;6.830;2022-09-03T16:53:41;3.13;;;1.80;;
67869;SDS011;54673;52.262;6.830;2022-09-03T17:10:47;5.23;;;1.80;;
67869;SDS011;54673;52.262;6.830;2022-09-03T17:13:36;3.70;;;1.90;;
67869;SDS011;54673;52.262;6.830;2022-09-03T17:24:51;3.38;;;1.60;;
67869;SDS011;54673;52.262;6.830;2022-09-03T17:30:19;2.00;;;1.77;;
67869;SDS011;54673;52.262;6.830;2022-09-03T17:41:54;1.73;;;1.63;;
67869;SDS011;54673;52.262;6.830;2022-09-03T17:48:12;1.80;;;1.70;;
67869;SDS011;54673;52.262;6.830;2022-09-03T17:50:42;3.03;;;1.60;;
67869;SDS011;54673;52.262;6.830;2022-09-03T17:55:52;3.45;;;1.70;;
67869;SDS011;54673;52.262;6.830;2022-09-03T18:03:39;7.87;;;1.90;;
67869;SDS011;54673;52.262;6.830;2022-09-03T18:06:24;4.53;;;2.03;;
67869;SDS011;54673;52.262;6.830;2022-09-03T18:11:46;4.67;;;2.27;;
67869;SDS011;54673;52.262;6.830;2022-09-03T18:14:19;4.43;;;2.15;;
67869;SDS011;54673;52.262;6.830;2022-09-03T18:19:50;2.73;;;2.00;;
67869;SDS011;54673;52.262;6.830;2022-09-03T18:22:42;3.47;;;2.25;;
67869;SDS011;54673;52.262;6.830;2022-09-03T18:25:46;4.10;;;2.40;;
67869;SDS011;54673;52.262;6.830;2022-09-03T18:31:27;1.77;;;1.63;;
67869;SDS011;54673;52.262;6.830;2022-09-03T18:34:12;3.97;;;2.20;;
67869;SDS011;54673;52.262;6.830;2022-09-03T18:36:57;2.33;;;1.70;;
67869;SDS011;54673;52.262;6.830;2022-09-03T18:39:43;2.63;;;1.55;;
67869;SDS011;54673;52.262;6.830;2022-09-03T18:45:34;4.90;;;1.67;;
67869;SDS011;54673;52.262;6.830;2022-09-03T18:57:45;3.40;;;2.03;;
67869;SDS011;54673;52.262;6.830;2022-09-03T19:01:04;3.73;;;1.93;;
67869;SDS011;54673;52.262;6.830;2022-09-03T19:04:12;3.42;;;2.00;;
67869;SDS011;54673;52.262;6.830;2022-09-03T19:07:01;3.17;;;2.10;;
67869;SDS011;54673;52.262;6.830;2022-09-03T19:09:56;7.17;;;2.00;;
67869;SDS011;54673;52.262;6.830;2022-09-03T19:16:12;3.78;;;1.80;;
67869;SDS011;54673;52.262;6.830;2022-09-03T19:21:58;2.78;;;1.77;;
67869;SDS011;54673;52.262;6.830;2022-09-03T19:24:51;3.60;;;1.70;;
67869;SDS011;54673;52.262;6.830;2022-09-03T19:27:50;2.58;;;1.50;;
67869;SDS011;54673;52.262;6.830;2022-09-03T19:33:38;2.93;;;1.70;;
67869;SDS011;54673;52.262;6.830;2022-09-03T19:46:12;4.65;;;1.80;;
67869;SDS011;54673;52.262;6.830;2022-09-03T19:49:19;2.37;;;1.80;;
67869;SDS011;54673;52.262;6.830;2022-09-03T19:52:19;7.90;;;1.90;;
67869;SDS011;54673;52.262;6.830;2022-09-03T19:55:24;1.90;;;1.55;;
67869;SDS011;54673;52.262;6.830;2022-09-03T19:58:10;2.13;;;1.83;;
67869;SDS011;54673;52.262;6.830;2022-09-03T20:00:59;1.90;;;1.65;;
67869;SDS011;54673;52.262;6.830;2022-09-03T20:03:44;2.75;;;1.55;;
67869;SDS011;54673;52.262;6.830;2022-09-03T20:06:28;2.77;;;1.60;;
67869;SDS011;54673;52.262;6.830;2022-09-03T20:09:16;2.90;;;1.50;;
67869;SDS011;54673;52.262;6.830;2022-09-03T20:12:15;3.57;;;1.60;;
67869;SDS011;54673;52.262;6.830;2022-09-03T20:14:43;2.50;;;1.60;;
67869;SDS011;54673;52.262;6.830;2022-09-03T20:23:00;1.83;;;1.70;;
67869;SDS011;54673;52.262;6.830;2022-09-03T20:28:02;10.57;;;2.63;;
67869;SDS011;54673;52.262;6.830;2022-09-03T20:30:43;7.63;;;2.23;;
67869;SDS011;54673;52.262;6.830;2022-09-03T20:38:46;4.17;;;2.10;;
67869;SDS011;54673;52.262;6.830;2022-09-03T20:54:37;2.33;;;2.08;;
67869;SDS011;54673;52.262;6.830;2022-09-03T20:57:16;5.63;;;2.10;;
67869;SDS011;54673;52.262;6.830;2022-09-03T21:02:27;5.13;;;2.10;;
67869;SDS011;54673;52.262;6.830;2022-09-03T21:10:19;4.22;;;1.63;;
67869;SDS011;54673;52.262;6.830;2022-09-03T21:15:27;3.28;;;1.98;;
67869;SDS011;54673;52.262;6.830;2022-09-03T21:18:03;2.08;;;1.70;;